createdAt,value
2022-09-29T00:00:40.538Z,7.82
2022-09-29T00:03:28.315Z,7.28
2022-09-29T00:05:56.408Z,6.95
2022-09-29T00:08:26.306Z,7.80
2022-09-29T00:10:54.420Z,6.93
2022-09-29T00:13:22.468Z,7.55
2022-09-29T00:16:00.614Z,9.07
2022-09-29T00:18:28.789Z,12.20
2022-09-29T00:20:57.483Z,10.32
2022-09-29T00:23:25.882Z,9.50
2022-09-29T00:26:10.479Z,8.52
2022-09-29T00:28:39.481Z,10.52
2022-09-29T00:31:07.845Z,7.45
2022-09-29T00:33:36.818Z,9.73
2022-09-29T00:36:09.305Z,8.50
2022-09-29T00:38:37.270Z,8.93
2022-09-29T00:41:05.544Z,9.98
2022-09-29T00:43:51.528Z,7.80
2022-09-29T00:46:34.522Z,5.65
2022-09-29T00:49:28.568Z,8.02
2022-09-29T00:51:59.159Z,7.70
2022-09-29T00:54:28.860Z,5.82
2022-09-29T00:56:57.796Z,9.45
2022-09-29T00:59:28.575Z,6.80
2022-09-29T01:01:56.554Z,6.40
2022-09-29T01:04:24.400Z,6.32
2022-09-29T01:06:56.920Z,5.90
2022-09-29T01:09:27.413Z,6.13
2022-09-29T01:11:58.177Z,4.78
2022-09-29T01:14:26.753Z,6.67
2022-09-29T01:16:54.489Z,6.10
2022-09-29T01:19:28.254Z,6.90
2022-09-29T01:22:07.754Z,9.85
2022-09-29T01:24:45.138Z,7.15
2022-09-29T01:27:22.290Z,7.22
2022-09-29T01:29:55.667Z,7.70
2022-09-29T01:32:34.381Z,5.65
2022-09-29T01:35:09.958Z,7.63
2022-09-29T01:37:39.435Z,7.70
2022-09-29T01:40:09.911Z,8.02
2022-09-29T01:45:30.087Z,5.53
2022-09-29T01:48:01.156Z,5.45
2022-09-29T01:50:31.621Z,5.85
2022-09-29T01:53:05.280Z,5.72
2022-09-29T01:55:34.376Z,4.88
2022-09-29T01:58:03.790Z,5.22
2022-09-29T02:00:39.847Z,6.90
2022-09-29T02:03:10.721Z,6.72
2022-09-29T02:05:45.308Z,6.13
2022-09-29T02:08:18.716Z,7.53
2022-09-29T02:11:02.023Z,8.73
2022-09-29T02:15:57.751Z,7.35
2022-09-29T02:18:29.688Z,6.03
2022-09-29T02:20:57.897Z,5.38
2022-09-29T02:23:25.606Z,5.43
2022-09-29T02:25:53.574Z,6.18
2022-09-29T02:28:21.597Z,9.52
2022-09-29T02:30:51.149Z,5.47
2022-09-29T02:33:23.287Z,5.28
2022-09-29T02:35:51.102Z,6.80
2022-09-29T02:38:48.286Z,6.80
2022-09-29T02:41:16.141Z,6.15
2022-09-29T02:43:43.663Z,5.68
2022-09-29T02:46:21.994Z,7.22
2022-09-29T02:48:49.920Z,7.10
2022-09-29T02:51:24.648Z,5.07
2022-09-29T02:53:55.539Z,4.78
2022-09-29T02:56:41.876Z,4.85
2022-09-29T02:59:13.001Z,9.82
2022-09-29T03:01:51.790Z,5.07
2022-09-29T03:04:20.811Z,4.65
2022-09-29T03:06:48.837Z,5.03
2022-09-29T03:09:16.434Z,6.38
2022-09-29T03:11:44.313Z,5.50
2022-09-29T03:14:12.882Z,9.70
2022-09-29T03:16:40.841Z,8.93
2022-09-29T03:19:09.618Z,4.68
2022-09-29T03:21:37.236Z,4.05
2022-09-29T03:24:06.059Z,3.95
2022-09-29T03:26:34.015Z,2.63
2022-09-29T03:29:01.691Z,3.28
2022-09-29T03:31:29.316Z,7.97
2022-09-29T03:33:57.159Z,5.57
2022-09-29T03:36:24.870Z,2.17
2022-09-29T03:38:52.532Z,2.42
2022-09-29T03:41:20.501Z,3.60
2022-09-29T03:43:48.162Z,4.05
2022-09-29T03:46:16.278Z,2.80
2022-09-29T03:48:44.157Z,3.88
2022-09-29T03:51:11.837Z,2.00
2022-09-29T03:53:39.444Z,8.45
2022-09-29T03:56:07.463Z,5.68
2022-09-29T03:58:35.348Z,4.38
2022-09-29T04:01:03.209Z,6.28
2022-09-29T04:03:31.372Z,3.38
2022-09-29T04:05:59.076Z,1.77
2022-09-29T04:08:26.615Z,2.90
2022-09-29T04:10:54.443Z,2.47
2022-09-29T04:13:22.076Z,14.45
2022-09-29T04:15:50.328Z,19.73
2022-09-29T04:18:18.383Z,5.15
2022-09-29T04:20:47.005Z,7.80
2022-09-29T04:23:14.722Z,4.63
2022-09-29T04:25:45.331Z,7.60
2022-09-29T04:28:13.642Z,5.90
2022-09-29T04:30:41.282Z,7.97
2022-09-29T04:33:09.923Z,6.38
2022-09-29T04:35:37.944Z,7.13
2022-09-29T04:38:05.800Z,16.45
2022-09-29T04:40:33.660Z,15.52
2022-09-29T04:43:01.640Z,21.70
2022-09-29T04:45:29.437Z,14.98
2022-09-29T04:47:57.268Z,11.02
2022-09-29T04:50:24.918Z,13.98
2022-09-29T04:52:53.761Z,8.80
2022-09-29T04:55:21.591Z,7.70
2022-09-29T04:57:50.952Z,21.30
2022-09-29T05:00:18.719Z,5.72
2022-09-29T05:02:49.644Z,4.70
2022-09-29T05:05:18.122Z,5.47
2022-09-29T05:07:45.896Z,7.93
2022-09-29T05:10:13.720Z,4.10
2022-09-29T05:12:41.478Z,21.10
2022-09-29T05:15:09.540Z,9.40
2022-09-29T05:17:37.400Z,17.00
2022-09-29T05:20:05.154Z,9.77
2022-09-29T05:22:33.132Z,5.72
2022-09-29T05:25:00.892Z,6.20
2022-09-29T05:27:28.542Z,5.00
2022-09-29T05:29:56.128Z,6.60
2022-09-29T05:32:23.998Z,4.65
2022-09-29T05:34:51.595Z,5.55
2022-09-29T05:37:19.337Z,9.68
2022-09-29T05:39:47.721Z,14.38
2022-09-29T05:42:15.444Z,8.18
2022-09-29T05:44:43.118Z,11.15
2022-09-29T05:47:11.057Z,16.65
2022-09-29T05:49:39.190Z,19.73
2022-09-29T05:52:07.000Z,7.68
2022-09-29T05:54:36.220Z,6.63
2022-09-29T05:57:03.890Z,6.78
2022-09-29T05:59:31.521Z,20.27
2022-09-29T06:01:59.607Z,30.55
2022-09-29T06:04:27.260Z,66.82
2022-09-29T06:06:57.260Z,16.50
2022-09-29T06:09:25.093Z,10.13
2022-09-29T06:11:52.748Z,11.88
2022-09-29T06:14:20.346Z,9.98
2022-09-29T06:16:49.228Z,6.45
2022-09-29T06:19:16.933Z,7.72
2022-09-29T06:21:44.697Z,11.48
2022-09-29T06:24:12.736Z,7.07
2022-09-29T06:26:40.440Z,11.60
2022-09-29T06:29:08.121Z,6.35
2022-09-29T06:31:36.563Z,10.85
2022-09-29T06:34:05.343Z,4.70
2022-09-29T06:36:58.876Z,6.30
2022-09-29T06:39:26.884Z,17.40
2022-09-29T06:41:56.281Z,19.27
2022-09-29T06:44:26.543Z,7.43
2022-09-29T06:46:54.924Z,6.28
2022-09-29T06:49:22.755Z,6.93
2022-09-29T06:51:50.985Z,5.15
2022-09-29T06:54:20.483Z,7.90
2022-09-29T06:56:50.666Z,7.83
2022-09-29T06:59:18.660Z,6.32
2022-09-29T07:01:50.825Z,8.77
2022-09-29T07:04:20.952Z,8.27
2022-09-29T07:06:49.551Z,10.40
2022-09-29T07:09:17.610Z,9.35
2022-09-29T07:11:50.186Z,6.68
2022-09-29T07:14:19.437Z,6.68
2022-09-29T07:16:48.519Z,5.72
2022-09-29T07:19:18.210Z,5.10
2022-09-29T07:21:49.446Z,5.93
2022-09-29T07:24:17.583Z,6.53
2022-09-29T07:26:45.808Z,5.35
2022-09-29T07:29:15.764Z,3.03
2022-09-29T07:31:51.376Z,3.83
2022-09-29T07:34:21.950Z,4.45
2022-09-29T07:36:49.934Z,4.30
2022-09-29T07:39:18.169Z,1.88
2022-09-29T07:41:46.098Z,6.10
2022-09-29T07:44:13.915Z,6.03
2022-09-29T07:46:41.843Z,5.80
2022-09-29T07:49:09.764Z,8.98
2022-09-29T07:51:37.485Z,2.03
2022-09-29T07:54:06.034Z,5.72
2022-09-29T07:56:35.426Z,2.17
2022-09-29T07:59:04.472Z,2.85
2022-09-29T08:01:32.620Z,1.45
2022-09-29T08:04:02.102Z,2.50
2022-09-29T08:06:30.186Z,6.88
2022-09-29T08:09:04.228Z,6.97
2022-09-29T08:11:37.697Z,2.38
2022-09-29T08:14:06.087Z,1.85
2022-09-29T08:16:34.675Z,1.58
2022-09-29T08:19:03.573Z,3.13
2022-09-29T08:21:36.276Z,3.58
2022-09-29T08:24:05.373Z,3.42
2022-09-29T08:26:42.406Z,5.93
2022-09-29T08:29:15.979Z,8.20
2022-09-29T08:31:44.979Z,7.20
2022-09-29T08:34:13.906Z,2.97
2022-09-29T08:36:42.126Z,9.02
2022-09-29T08:39:11.022Z,9.40
2022-09-29T08:41:52.147Z,4.25
2022-09-29T08:44:34.119Z,7.22
2022-09-29T08:47:19.306Z,5.32
2022-09-29T08:49:48.171Z,4.80
2022-09-29T08:52:18.577Z,5.07
2022-09-29T08:54:49.477Z,5.50
2022-09-29T08:57:21.692Z,5.97
2022-09-29T08:59:55.052Z,32.58
2022-09-29T09:02:35.317Z,36.28
2022-09-29T09:05:02.988Z,25.77
2022-09-29T09:08:07.115Z,12.48
2022-09-29T09:10:44.223Z,7.75
2022-09-29T09:13:14.778Z,8.98
2022-09-29T09:15:45.483Z,13.35
2022-09-29T09:18:24.305Z,4.45
2022-09-29T09:20:51.961Z,7.80
2022-09-29T09:23:24.432Z,4.65
2022-09-29T09:26:00.136Z,3.47
2022-09-29T09:28:30.632Z,3.20
2022-09-29T09:31:02.255Z,2.67
2022-09-29T09:34:00.742Z,3.95
2022-09-29T09:36:36.090Z,1.98
2022-09-29T09:39:18.884Z,4.18
2022-09-29T09:41:48.378Z,4.03
2022-09-29T09:44:35.722Z,4.68
2022-09-29T09:47:22.021Z,3.70
2022-09-29T09:49:52.409Z,4.60
2022-09-29T09:52:38.791Z,4.80
2022-09-29T09:55:07.297Z,2.75
2022-09-29T09:57:58.215Z,3.65
2022-09-29T10:00:32.465Z,2.35
2022-09-29T10:03:02.925Z,5.80
2022-09-29T10:05:42.149Z,3.45
2022-09-29T10:08:12.181Z,3.67
2022-09-29T10:10:51.344Z,3.38
2022-09-29T10:13:27.323Z,2.92
2022-09-29T10:15:58.064Z,3.65
2022-09-29T10:18:25.783Z,7.75
2022-09-29T10:20:53.488Z,4.97
2022-09-29T10:23:21.950Z,5.28
2022-09-29T10:26:12.873Z,6.60
2022-09-29T10:28:45.754Z,5.22
2022-09-29T10:31:39.586Z,11.25
2022-09-29T10:34:13.771Z,3.70
2022-09-29T10:36:52.688Z,3.03
2022-09-29T10:39:35.481Z,4.00
2022-09-29T10:42:06.067Z,8.15
2022-09-29T10:44:33.991Z,6.47
2022-09-29T10:47:01.662Z,5.43
2022-09-29T10:49:29.652Z,5.47
2022-09-29T10:52:00.779Z,13.45
2022-09-29T10:56:57.357Z,16.73
2022-09-29T10:59:25.841Z,19.55
2022-09-29T11:02:00.158Z,10.48
2022-09-29T11:04:30.493Z,5.22
2022-09-29T11:06:58.507Z,3.67
2022-09-29T11:09:30.369Z,4.28
2022-09-29T11:12:01.558Z,5.28
2022-09-29T11:14:37.794Z,4.55
2022-09-29T11:17:23.610Z,4.05
2022-09-29T11:19:52.319Z,4.45
2022-09-29T11:22:32.436Z,4.05
2022-09-29T11:25:08.956Z,3.83
2022-09-29T11:27:49.900Z,3.28
2022-09-29T11:30:25.464Z,6.43
2022-09-29T11:32:53.398Z,3.25
2022-09-29T11:35:26.860Z,5.30
2022-09-29T11:38:00.989Z,2.53
2022-09-29T11:40:28.624Z,6.07
2022-09-29T11:43:01.621Z,3.72
2022-09-29T11:45:38.073Z,3.20
2022-09-29T11:48:05.938Z,2.83
2022-09-29T11:50:57.062Z,3.10
2022-09-29T11:53:44.205Z,2.97
2022-09-29T11:56:31.805Z,3.80
2022-09-29T11:58:59.561Z,8.20
2022-09-29T12:01:39.869Z,2.63
2022-09-29T12:04:09.908Z,4.13
2022-09-29T12:06:55.133Z,4.20
2022-09-29T12:09:33.355Z,2.75
2022-09-29T12:12:23.699Z,3.70
2022-09-29T12:14:52.411Z,4.37
2022-09-29T12:17:20.966Z,2.90
2022-09-29T12:19:51.801Z,4.30
2022-09-29T12:22:20.720Z,3.78
2022-09-29T12:24:50.002Z,7.00
2022-09-29T12:27:20.672Z,3.35
2022-09-29T12:29:56.276Z,11.65
2022-09-29T12:32:33.539Z,3.53
2022-09-29T12:35:24.375Z,5.63
2022-09-29T12:37:53.393Z,3.93
2022-09-29T12:40:23.363Z,6.78
2022-09-29T12:42:57.203Z,6.20
2022-09-29T12:45:25.232Z,17.00
2022-09-29T12:47:55.952Z,6.45
2022-09-29T12:50:26.744Z,6.32
2022-09-29T13:11:19.357Z,7.82
2022-09-29T13:14:16.689Z,6.18
2022-09-29T13:16:49.609Z,5.90
2022-09-29T13:19:56.651Z,6.03
2022-09-29T13:22:24.869Z,7.20
2022-09-29T13:25:23.465Z,7.55
2022-09-29T13:27:52.714Z,5.07
2022-09-29T13:30:38.766Z,6.15
2022-09-29T13:33:20.872Z,4.72
2022-09-29T13:35:50.445Z,6.55
2022-09-29T13:38:21.975Z,9.30
2022-09-29T13:41:15.776Z,5.90
2022-09-29T13:43:43.104Z,8.45
2022-09-29T13:46:31.872Z,9.77
2022-09-29T13:49:13.986Z,7.63
2022-09-29T13:51:52.684Z,5.93
2022-09-29T13:54:24.712Z,5.95
2022-09-29T13:57:05.503Z,7.95
2022-09-29T13:59:34.066Z,8.95
2022-09-29T14:02:03.128Z,13.98
2022-09-29T14:04:37.479Z,5.88
2022-09-29T14:07:08.066Z,6.93
2022-09-29T14:09:40.820Z,5.75
2022-09-29T14:12:17.969Z,5.18
2022-09-29T14:14:53.091Z,16.48
2022-09-29T14:17:31.545Z,8.13
2022-09-29T14:20:19.770Z,8.70
2022-09-29T15:39:57.512Z,10.25
2022-09-29T15:42:25.118Z,8.98
2022-09-29T15:45:01.002Z,7.55
2022-09-29T15:47:37.688Z,8.00
2022-09-29T15:50:18.590Z,9.60
2022-09-29T15:52:46.590Z,13.98
2022-09-29T15:55:16.965Z,10.80
2022-09-29T15:57:58.743Z,8.35
2022-09-29T16:03:04.565Z,9.57
2022-09-29T16:05:35.453Z,17.38
2022-09-29T16:08:15.762Z,18.33
2022-09-29T16:10:55.106Z,20.10
2022-09-29T16:13:28.095Z,16.20
2022-09-29T16:16:02.756Z,23.27
2022-09-29T16:18:35.524Z,16.42
2022-09-29T16:21:09.168Z,20.27
2022-09-29T16:23:42.703Z,16.08
2022-09-29T16:26:20.260Z,16.40
2022-09-29T16:29:09.918Z,20.38
2022-09-29T16:31:46.689Z,20.52
2022-09-29T16:34:29.661Z,20.27
2022-09-29T16:37:07.133Z,24.42
2022-09-29T16:39:42.307Z,65.40
2022-09-29T16:42:24.505Z,66.80
2022-09-29T16:47:30.857Z,24.80
2022-09-29T16:50:09.352Z,25.73
2022-09-29T16:52:47.171Z,25.92
2022-09-29T16:55:27.891Z,29.23
2022-09-29T16:58:05.090Z,25.10
2022-09-29T17:00:36.488Z,25.25
2022-09-29T17:03:05.823Z,31.27
2022-09-29T17:05:38.030Z,25.58
2022-09-29T17:08:12.970Z,26.65
2022-09-29T17:10:40.310Z,25.50
2022-09-29T17:13:13.997Z,24.90
2022-09-29T17:15:42.467Z,32.28
2022-09-29T17:18:14.373Z,30.30
2022-09-29T17:20:42.039Z,31.02
2022-09-29T17:23:10.820Z,27.20
2022-09-29T17:25:40.801Z,23.27
2022-09-29T17:28:25.752Z,26.60
2022-09-29T17:30:55.707Z,32.75
2022-09-29T17:33:23.731Z,31.42
2022-09-29T17:35:55.262Z,28.17
2022-09-29T17:38:24.040Z,32.78
2022-09-29T17:41:16.297Z,39.83
2022-09-29T17:46:17.073Z,76.55
2022-09-29T17:48:44.806Z,71.05
2022-09-29T17:51:14.155Z,51.78
2022-09-29T17:53:41.667Z,75.80
2022-09-29T17:56:26.897Z,46.17
2022-09-29T17:58:55.351Z,43.92
2022-09-29T18:01:24.229Z,52.45
2022-09-29T18:03:52.562Z,46.22
2022-09-29T18:06:25.040Z,58.40
2022-09-29T18:11:24.222Z,53.30
2022-09-29T18:13:53.174Z,58.05
2022-09-29T18:16:23.683Z,63.45
2022-09-29T18:18:57.996Z,67.55
2022-09-29T18:21:26.992Z,52.47
2022-09-29T18:23:55.559Z,60.97
2022-09-29T18:26:22.948Z,87.22
2022-09-29T18:28:51.593Z,99.95
2022-09-29T18:31:24.673Z,81.45
2022-09-29T18:33:55.691Z,77.68
2022-09-29T18:36:23.078Z,83.32
2022-09-29T18:38:50.386Z,74.53
2022-09-29T18:41:20.242Z,63.63
2022-09-29T18:43:48.691Z,60.03
2022-09-29T18:46:17.017Z,64.05
2022-09-29T18:48:44.936Z,58.58
2022-09-29T18:51:13.693Z,55.88
2022-09-29T18:53:42.345Z,58.38
2022-09-29T18:56:16.681Z,53.05
2022-09-29T18:58:44.504Z,49.08
2022-09-29T19:01:19.398Z,50.30
2022-09-29T19:03:46.824Z,57.88
2022-09-29T19:06:18.414Z,61.03
2022-09-29T19:08:49.100Z,65.60
2022-09-29T19:11:25.541Z,63.00
2022-09-29T19:13:56.737Z,64.43
2022-09-29T19:16:25.946Z,80.60
2022-09-29T19:18:53.773Z,62.90
2022-09-29T19:21:22.666Z,59.67
2022-09-29T19:23:51.785Z,63.60
2022-09-29T19:26:22.432Z,57.67
2022-09-29T19:28:49.955Z,54.53
2022-09-29T19:31:20.792Z,48.70
2022-09-29T19:33:48.945Z,46.20
2022-09-29T19:36:20.207Z,49.03
2022-09-29T19:38:47.925Z,49.58
2022-09-29T19:41:21.346Z,40.38
2022-09-29T19:43:49.875Z,38.95
2022-09-29T19:46:19.437Z,52.53
2022-09-29T19:48:47.050Z,58.30
2022-09-29T19:51:35.077Z,66.90
2022-09-29T19:54:10.798Z,56.80
2022-09-29T19:56:42.757Z,62.30
2022-09-29T19:59:14.216Z,57.63
2022-09-29T20:01:44.610Z,63.75
2022-09-29T20:04:14.201Z,59.78
2022-09-29T20:06:42.362Z,52.40
2022-09-29T20:09:10.660Z,56.90
2022-09-29T20:11:38.008Z,49.05
2022-09-29T20:14:07.279Z,58.33
2022-09-29T20:16:38.094Z,46.78
2022-09-29T20:19:07.468Z,91.80
2022-09-29T20:21:35.377Z,58.72
2022-09-29T20:24:02.842Z,66.57
2022-09-29T20:26:30.123Z,61.17
2022-09-29T20:28:58.484Z,56.22
2022-09-29T20:31:26.818Z,54.25
2022-09-29T20:33:54.158Z,54.67
2022-09-29T20:36:21.434Z,52.75
2022-09-29T20:38:49.100Z,46.50
2022-09-29T20:41:16.773Z,41.63
2022-09-29T20:43:47.778Z,38.80
2022-09-29T20:46:15.740Z,39.08
2022-09-29T20:48:44.108Z,35.83
2022-09-29T20:51:17.204Z,34.97
2022-09-29T20:53:50.969Z,33.10
2022-09-29T20:56:18.927Z,39.67
2022-09-29T20:58:48.882Z,45.70
2022-09-29T21:01:20.192Z,43.63
2022-09-29T21:03:50.212Z,38.15
2022-09-29T21:06:21.952Z,38.13
2022-09-29T21:08:49.790Z,34.20
2022-09-29T21:11:17.211Z,30.95
2022-09-29T21:13:49.031Z,35.42
2022-09-29T21:16:17.793Z,38.58
2022-09-29T21:18:45.504Z,39.40
2022-09-29T21:21:12.876Z,42.90
2022-09-29T21:23:42.804Z,37.38
2022-09-29T21:26:19.622Z,41.63
2022-09-29T21:28:58.140Z,35.78
2022-09-29T21:31:33.943Z,30.48
2022-09-29T21:34:04.124Z,28.38
2022-09-29T21:36:34.877Z,32.83
2022-09-29T21:39:07.574Z,33.78
2022-09-29T21:41:38.535Z,31.10
2022-09-29T21:44:11.393Z,35.33
2022-09-29T21:46:39.501Z,28.98
2022-09-29T21:49:09.575Z,25.60
2022-09-29T21:51:38.187Z,31.48
2022-09-29T21:54:08.441Z,32.03
2022-09-29T21:56:39.002Z,31.50
2022-09-29T21:59:08.508Z,27.10
2022-09-29T22:01:38.289Z,31.98
2022-09-29T22:04:09.531Z,31.05
2022-09-29T22:06:38.256Z,34.15
2022-09-29T22:09:09.515Z,31.73
2022-09-29T22:11:38.972Z,31.63
2022-09-29T22:16:55.039Z,35.58
2022-09-29T22:19:24.892Z,36.05
2022-09-29T22:21:54.282Z,26.60
2022-09-29T22:24:24.150Z,31.80
2022-09-29T22:26:52.896Z,23.95
2022-09-29T22:29:23.104Z,26.92
2022-09-29T22:31:53.278Z,26.00
2022-09-29T22:34:23.086Z,27.60
2022-09-29T22:36:51.941Z,29.40
2022-09-29T22:39:20.022Z,31.98
2022-09-29T22:41:48.109Z,36.58
2022-09-29T22:44:17.681Z,34.97
2022-09-29T22:46:45.952Z,40.17
2022-09-29T22:49:14.016Z,35.72
2022-09-29T22:51:41.859Z,38.33
2022-09-29T22:54:09.861Z,34.08
2022-09-29T22:56:40.513Z,33.38
2022-09-29T22:59:09.173Z,42.28
2022-09-29T23:01:36.666Z,40.63
2022-09-29T23:04:04.374Z,44.72
2022-09-29T23:06:32.515Z,31.75
2022-09-29T23:09:00.093Z,26.00
2022-09-29T23:11:30.029Z,28.73
2022-09-29T23:13:57.357Z,33.20
2022-09-29T23:16:24.958Z,24.00
2022-09-29T23:18:58.451Z,20.33
2022-09-29T23:21:26.543Z,22.75
2022-09-29T23:23:55.943Z,15.13
2022-09-29T23:26:24.049Z,15.07
2022-09-29T23:28:53.134Z,18.70
2022-09-29T23:31:20.460Z,18.40
2022-09-29T23:33:53.091Z,18.95
2022-09-29T23:36:20.594Z,20.25
2022-09-29T23:39:08.569Z,19.08
2022-09-29T23:41:39.565Z,14.02
2022-09-29T23:44:06.829Z,15.68
2022-09-29T23:46:37.006Z,16.98
2022-09-29T23:49:09.534Z,14.18
2022-09-29T23:51:41.700Z,18.13
2022-09-29T23:54:12.381Z,14.85
2022-09-29T23:56:41.661Z,14.73
2022-09-29T23:59:09.835Z,17.20
